sensor_id;sensor_type;location;lat;lon;timestamp;temperature;humidity
8152;DHT22;4117;53.622;9.958;2023-04-24T00:01:34;11.90;1.00
8152;DHT22;4117;53.622;9.958;2023-04-24T00:04:02;11.90;1.00
8152;DHT22;4117;53.622;9.958;2023-04-24T00:06:30;11.80;1.00
8152;DHT22;4117;53.622;9.958;2023-04-24T00:08:59;11.80;1.00
8152;DHT22;4117;53.622;9.958;2023-04-24T00:11:26;11.80;1.00
8152;DHT22;4117;53.622;9.958;2023-04-24T00:13:53;11.80;1.00
8152;DHT22;4117;53.622;9.958;2023-04-24T00:16:20;11.80;1.00
8152;DHT22;4117;53.622;9.958;2023-04-24T00:18:48;11.80;1.00
8152;DHT22;4117;53.622;9.958;2023-04-24T00:21:15;11.80;1.00
8152;DHT22;4117;53.622;9.958;2023-04-24T00:23:44;11.90;1.00
8152;DHT22;4117;53.622;9.958;2023-04-24T00:26:11;11.80;1.00
8152;DHT22;4117;53.622;9.958;2023-04-24T00:28:38;11.90;1.00
8152;DHT22;4117;53.622;9.958;2023-04-24T00:31:05;11.80;1.00
8152;DHT22;4117;53.622;9.958;2023-04-24T00:33:32;11.80;1.00
8152;DHT22;4117;53.622;9.958;2023-04-24T00:35:59;11.80;1.00
8152;DHT22;4117;53.622;9.958;2023-04-24T00:38:26;11.80;1.00
8152;DHT22;4117;53.622;9.958;2023-04-24T00:40:55;11.80;1.00
8152;DHT22;4117;53.622;9.958;2023-04-24T00:43:22;11.80;1.00
8152;DHT22;4117;53.622;9.958;2023-04-24T00:45:49;11.80;1.00
8152;DHT22;4117;53.622;9.958;2023-04-24T00:48:16;11.80;1.00
8152;DHT22;4117;53.622;9.958;2023-04-24T00:50:43;11.80;1.00
8152;DHT22;4117;53.622;9.958;2023-04-24T00:53:10;11.80;1.00
8152;DHT22;4117;53.622;9.958;2023-04-24T00:55:38;11.70;1.00
8152;DHT22;4117;53.622;9.958;2023-04-24T00:58:06;11.70;1.00
8152;DHT22;4117;53.622;9.958;2023-04-24T01:00:33;11.70;1.00
8152;DHT22;4117;53.622;9.958;2023-04-24T01:03:04;11.70;1.00
8152;DHT22;4117;53.622;9.958;2023-04-24T01:05:31;11.70;1.00
8152;DHT22;4117;53.622;9.958;2023-04-24T01:07:59;11.60;1.00
8152;DHT22;4117;53.622;9.958;2023-04-24T01:10:29;11.60;1.00
8152;DHT22;4117;53.622;9.958;2023-04-24T01:12:58;11.60;1.00
8152;DHT22;4117;53.622;9.958;2023-04-24T01:15:26;11.60;1.00
8152;DHT22;4117;53.622;9.958;2023-04-24T01:17:53;11.60;1.00
8152;DHT22;4117;53.622;9.958;2023-04-24T01:20:21;11.60;1.00
8152;DHT22;4117;53.622;9.958;2023-04-24T01:22:51;11.60;1.00
8152;DHT22;4117;53.622;9.958;2023-04-24T01:25:18;11.50;1.00
8152;DHT22;4117;53.622;9.958;2023-04-24T01:27:45;11.50;1.00
8152;DHT22;4117;53.622;9.958;2023-04-24T01:30:13;11.50;1.00
8152;DHT22;4117;53.622;9.958;2023-04-24T01:32:40;11.50;1.00
8152;DHT22;4117;53.622;9.958;2023-04-24T01:35:10;11.40;1.00
8152;DHT22;4117;53.622;9.958;2023-04-24T01:37:36;11.40;1.00
8152;DHT22;4117;53.622;9.958;2023-04-24T01:40:06;11.50;1.00
8152;DHT22;4117;53.622;9.958;2023-04-24T01:42:34;11.50;1.00
8152;DHT22;4117;53.622;9.958;2023-04-24T01:45:04;11.40;1.00
8152;DHT22;4117;53.622;9.958;2023-04-24T01:47:31;11.40;1.00
8152;DHT22;4117;53.622;9.958;2023-04-24T01:49:58;11.40;1.00
8152;DHT22;4117;53.622;9.958;2023-04-24T01:52:25;11.50;1.00
8152;DHT22;4117;53.622;9.958;2023-04-24T01:54:54;11.40;1.00
8152;DHT22;4117;53.622;9.958;2023-04-24T01:57:23;11.40;1.00
8152;DHT22;4117;53.622;9.958;2023-04-24T01:59:50;11.40;1.00
8152;DHT22;4117;53.622;9.958;2023-04-24T02:02:17;11.40;1.00
8152;DHT22;4117;53.622;9.958;2023-04-24T02:04:46;11.40;1.00
8152;DHT22;4117;53.622;9.958;2023-04-24T02:07:13;11.40;1.00
8152;DHT22;4117;53.622;9.958;2023-04-24T02:09:40;11.30;1.00
8152;DHT22;4117;53.622;9.958;2023-04-24T02:12:07;11.30;1.00
8152;DHT22;4117;53.622;9.958;2023-04-24T02:14:35;11.30;1.00
8152;DHT22;4117;53.622;9.958;2023-04-24T02:17:02;11.20;1.00
8152;DHT22;4117;53.622;9.958;2023-04-24T02:19:30;11.20;1.00
8152;DHT22;4117;53.622;9.958;2023-04-24T02:21:57;11.20;1.00
8152;DHT22;4117;53.622;9.958;2023-04-24T02:24:24;11.20;1.00
8152;DHT22;4117;53.622;9.958;2023-04-24T02:26:51;11.10;1.00
8152;DHT22;4117;53.622;9.958;2023-04-24T02:29:18;11.10;1.00
8152;DHT22;4117;53.622;9.958;2023-04-24T02:31:46;11.00;1.00
8152;DHT22;4117;53.622;9.958;2023-04-24T02:34:13;11.00;1.00
8152;DHT22;4117;53.622;9.958;2023-04-24T02:36:40;11.00;1.00
8152;DHT22;4117;53.622;9.958;2023-04-24T02:39:06;11.00;1.00
8152;DHT22;4117;53.622;9.958;2023-04-24T02:41:33;11.00;1.00
8152;DHT22;4117;53.622;9.958;2023-04-24T02:44:00;10.90;1.00
8152;DHT22;4117;53.622;9.958;2023-04-24T02:46:27;10.90;1.00
8152;DHT22;4117;53.622;9.958;2023-04-24T02:48:55;10.90;1.00
8152;DHT22;4117;53.622;9.958;2023-04-24T02:51:22;10.90;1.00
8152;DHT22;4117;53.622;9.958;2023-04-24T02:53:49;10.90;1.00
8152;DHT22;4117;53.622;9.958;2023-04-24T02:56:16;10.90;1.00
8152;DHT22;4117;53.622;9.958;2023-04-24T02:58:43;10.90;1.00
8152;DHT22;4117;53.622;9.958;2023-04-24T03:01:09;10.80;1.00
8152;DHT22;4117;53.622;9.958;2023-04-24T03:03:37;10.80;1.00
8152;DHT22;4117;53.622;9.958;2023-04-24T03:06:05;10.80;1.00
8152;DHT22;4117;53.622;9.958;2023-04-24T03:08:33;10.80;1.00
8152;DHT22;4117;53.622;9.958;2023-04-24T03:11:00;10.80;1.00
8152;DHT22;4117;53.622;9.958;2023-04-24T03:13:27;10.80;1.00
8152;DHT22;4117;53.622;9.958;2023-04-24T03:15:54;10.80;1.00
8152;DHT22;4117;53.622;9.958;2023-04-24T03:18:21;10.70;1.00
8152;DHT22;4117;53.622;9.958;2023-04-24T03:20:48;10.70;1.00
8152;DHT22;4117;53.622;9.958;2023-04-24T03:23:16;10.70;1.00
8152;DHT22;4117;53.622;9.958;2023-04-24T03:25:43;10.60;1.00
8152;DHT22;4117;53.622;9.958;2023-04-24T03:28:10;10.60;1.00
8152;DHT22;4117;53.622;9.958;2023-04-24T03:30:37;10.60;1.00
8152;DHT22;4117;53.622;9.958;2023-04-24T03:33:03;10.60;1.00
8152;DHT22;4117;53.622;9.958;2023-04-24T03:35:31;10.60;1.00
8152;DHT22;4117;53.622;9.958;2023-04-24T03:37:57;10.60;1.00
8152;DHT22;4117;53.622;9.958;2023-04-24T03:40:26;10.60;1.00
8152;DHT22;4117;53.622;9.958;2023-04-24T03:42:54;10.60;1.00
8152;DHT22;4117;53.622;9.958;2023-04-24T03:45:21;10.60;1.00
8152;DHT22;4117;53.622;9.958;2023-04-24T03:47:49;10.50;1.00
8152;DHT22;4117;53.622;9.958;2023-04-24T03:50:16;10.50;1.00
8152;DHT22;4117;53.622;9.958;2023-04-24T03:52:43;10.40;1.00
8152;DHT22;4117;53.622;9.958;2023-04-24T03:55:10;10.30;1.00
8152;DHT22;4117;53.622;9.958;2023-04-24T03:57:39;10.30;1.00
8152;DHT22;4117;53.622;9.958;2023-04-24T04:00:07;10.30;1.00
8152;DHT22;4117;53.622;9.958;2023-04-24T04:02:35;10.30;1.00
8152;DHT22;4117;53.622;9.958;2023-04-24T04:05:02;10.30;1.00
8152;DHT22;4117;53.622;9.958;2023-04-24T04:07:29;10.30;1.00
8152;DHT22;4117;53.622;9.958;2023-04-24T04:09:56;10.20;1.00
8152;DHT22;4117;53.622;9.958;2023-04-24T04:12:23;10.20;1.00
8152;DHT22;4117;53.622;9.958;2023-04-24T04:14:51;10.20;1.00
8152;DHT22;4117;53.622;9.958;2023-04-24T04:17:18;10.20;1.00
8152;DHT22;4117;53.622;9.958;2023-04-24T04:19:45;10.10;1.00
8152;DHT22;4117;53.622;9.958;2023-04-24T04:22:12;10.10;1.00
8152;DHT22;4117;53.622;9.958;2023-04-24T04:24:38;10.10;1.00
8152;DHT22;4117;53.622;9.958;2023-04-24T04:27:06;10.10;1.00
8152;DHT22;4117;53.622;9.958;2023-04-24T04:29:33;10.10;1.00
8152;DHT22;4117;53.622;9.958;2023-04-24T04:32:02;10.10;1.00
8152;DHT22;4117;53.622;9.958;2023-04-24T04:34:29;10.10;1.00
8152;DHT22;4117;53.622;9.958;2023-04-24T04:36:57;10.10;1.00
8152;DHT22;4117;53.622;9.958;2023-04-24T04:39:26;10.10;1.00
8152;DHT22;4117;53.622;9.958;2023-04-24T04:41:55;10.10;1.00
8152;DHT22;4117;53.622;9.958;2023-04-24T04:44:22;10.10;1.00
8152;DHT22;4117;53.622;9.958;2023-04-24T04:46:49;10.10;1.00
8152;DHT22;4117;53.622;9.958;2023-04-24T04:49:20;10.10;1.00
8152;DHT22;4117;53.622;9.958;2023-04-24T04:51:47;10.10;1.00
8152;DHT22;4117;53.622;9.958;2023-04-24T04:54:14;10.20;1.00
8152;DHT22;4117;53.622;9.958;2023-04-24T04:56:41;10.30;1.00
8152;DHT22;4117;53.622;9.958;2023-04-24T04:59:08;10.40;1.00
8152;DHT22;4117;53.622;9.958;2023-04-24T05:01:35;10.40;1.00
8152;DHT22;4117;53.622;9.958;2023-04-24T05:04:02;10.40;1.00
8152;DHT22;4117;53.622;9.958;2023-04-24T05:06:30;10.40;1.00
8152;DHT22;4117;53.622;9.958;2023-04-24T05:08:57;10.40;1.00
8152;DHT22;4117;53.622;9.958;2023-04-24T05:11:24;10.30;1.00
8152;DHT22;4117;53.622;9.958;2023-04-24T05:13:51;10.30;1.00
8152;DHT22;4117;53.622;9.958;2023-04-24T05:16:18;10.30;1.00
8152;DHT22;4117;53.622;9.958;2023-04-24T05:18:44;10.30;1.00
8152;DHT22;4117;53.622;9.958;2023-04-24T05:21:11;10.30;1.00
8152;DHT22;4117;53.622;9.958;2023-04-24T05:23:39;10.40;1.00
8152;DHT22;4117;53.622;9.958;2023-04-24T05:26:06;10.40;1.00
8152;DHT22;4117;53.622;9.958;2023-04-24T05:28:33;10.50;1.00
8152;DHT22;4117;53.622;9.958;2023-04-24T05:31:02;10.50;1.00
8152;DHT22;4117;53.622;9.958;2023-04-24T05:33:28;10.50;1.00
8152;DHT22;4117;53.622;9.958;2023-04-24T05:35:56;10.60;1.00
8152;DHT22;4117;53.622;9.958;2023-04-24T05:38:23;10.60;1.00
8152;DHT22;4117;53.622;9.958;2023-04-24T05:40:51;10.70;1.00
8152;DHT22;4117;53.622;9.958;2023-04-24T05:43:18;10.80;1.00
8152;DHT22;4117;53.622;9.958;2023-04-24T05:45:45;10.80;1.00
8152;DHT22;4117;53.622;9.958;2023-04-24T05:48:12;10.80;1.00
8152;DHT22;4117;53.622;9.958;2023-04-24T05:50:39;10.80;1.00
8152;DHT22;4117;53.622;9.958;2023-04-24T05:53:05;10.80;1.00
8152;DHT22;4117;53.622;9.958;2023-04-24T05:55:33;10.90;1.00
8152;DHT22;4117;53.622;9.958;2023-04-24T05:58:02;10.90;1.00
8152;DHT22;4117;53.622;9.958;2023-04-24T06:00:30;10.90;1.00
8152;DHT22;4117;53.622;9.958;2023-04-24T06:02:58;10.90;1.00
8152;DHT22;4117;53.622;9.958;2023-04-24T06:05:24;10.90;1.00
8152;DHT22;4117;53.622;9.958;2023-04-24T06:07:52;11.00;1.00
8152;DHT22;4117;53.622;9.958;2023-04-24T06:10:18;11.00;1.00
8152;DHT22;4117;53.622;9.958;2023-04-24T06:12:45;10.90;1.00
8152;DHT22;4117;53.622;9.958;2023-04-24T06:15:14;11.00;1.00
8152;DHT22;4117;53.622;9.958;2023-04-24T06:17:40;11.10;1.00
8152;DHT22;4117;53.622;9.958;2023-04-24T06:20:08;11.10;1.00
8152;DHT22;4117;53.622;9.958;2023-04-24T06:22:36;11.10;1.00
8152;DHT22;4117;53.622;9.958;2023-04-24T06:25:06;11.10;1.00
8152;DHT22;4117;53.622;9.958;2023-04-24T06:27:33;11.10;1.00
8152;DHT22;4117;53.622;9.958;2023-04-24T06:30:01;11.20;1.00
8152;DHT22;4117;53.622;9.958;2023-04-24T06:32:29;11.20;1.00
8152;DHT22;4117;53.622;9.958;2023-04-24T06:34:56;11.20;1.00
8152;DHT22;4117;53.622;9.958;2023-04-24T06:37:23;11.20;1.00
8152;DHT22;4117;53.622;9.958;2023-04-24T06:39:50;11.30;1.00
8152;DHT22;4117;53.622;9.958;2023-04-24T06:42:17;11.30;1.00
8152;DHT22;4117;53.622;9.958;2023-04-24T06:44:46;11.40;1.00
8152;DHT22;4117;53.622;9.958;2023-04-24T06:47:13;11.50;1.00
8152;DHT22;4117;53.622;9.958;2023-04-24T06:49:41;11.70;1.00
8152;DHT22;4117;53.622;9.958;2023-04-24T06:52:08;11.80;1.00
8152;DHT22;4117;53.622;9.958;2023-04-24T06:54:36;11.90;1.00
8152;DHT22;4117;53.622;9.958;2023-04-24T06:57:03;12.00;1.00
8152;DHT22;4117;53.622;9.958;2023-04-24T06:59:30;12.40;1.00
8152;DHT22;4117;53.622;9.958;2023-04-24T07:01:57;12.50;1.00
8152;DHT22;4117;53.622;9.958;2023-04-24T07:04:24;12.40;1.00
8152;DHT22;4117;53.622;9.958;2023-04-24T07:06:52;12.30;1.00
8152;DHT22;4117;53.622;9.958;2023-04-24T07:09:21;12.40;1.00
8152;DHT22;4117;53.622;9.958;2023-04-24T07:11:49;12.70;1.00
8152;DHT22;4117;53.622;9.958;2023-04-24T07:14:16;12.90;1.00
8152;DHT22;4117;53.622;9.958;2023-04-24T07:16:42;13.00;1.00
8152;DHT22;4117;53.622;9.958;2023-04-24T07:19:12;13.00;1.00
8152;DHT22;4117;53.622;9.958;2023-04-24T07:21:39;13.00;1.00
8152;DHT22;4117;53.622;9.958;2023-04-24T07:24:07;13.00;1.00
8152;DHT22;4117;53.622;9.958;2023-04-24T07:26:37;13.00;1.00
8152;DHT22;4117;53.622;9.958;2023-04-24T07:29:04;12.70;1.00
8152;DHT22;4117;53.622;9.958;2023-04-24T07:31:31;12.70;1.00
8152;DHT22;4117;53.622;9.958;2023-04-24T07:33:58;13.10;1.00
8152;DHT22;4117;53.622;9.958;2023-04-24T07:36:25;13.40;1.00
8152;DHT22;4117;53.622;9.958;2023-04-24T07:38:52;13.30;1.00
8152;DHT22;4117;53.622;9.958;2023-04-24T07:41:20;13.40;1.00
8152;DHT22;4117;53.622;9.958;2023-04-24T07:43:48;13.20;1.00
8152;DHT22;4117;53.622;9.958;2023-04-24T07:46:15;13.30;1.00
8152;DHT22;4117;53.622;9.958;2023-04-24T07:48:42;13.50;1.00
8152;DHT22;4117;53.622;9.958;2023-04-24T07:51:09;13.70;1.00
8152;DHT22;4117;53.622;9.958;2023-04-24T07:53:37;13.80;1.00
8152;DHT22;4117;53.622;9.958;2023-04-24T07:56:05;13.60;1.00
8152;DHT22;4117;53.622;9.958;2023-04-24T07:58:33;13.30;1.00
8152;DHT22;4117;53.622;9.958;2023-04-24T08:01:00;13.10;1.00
8152;DHT22;4117;53.622;9.958;2023-04-24T08:03:28;13.00;1.00
8152;DHT22;4117;53.622;9.958;2023-04-24T08:05:55;12.90;1.00
8152;DHT22;4117;53.622;9.958;2023-04-24T08:08:22;12.70;1.00
8152;DHT22;4117;53.622;9.958;2023-04-24T08:10:49;12.60;1.00
8152;DHT22;4117;53.622;9.958;2023-04-24T08:13:16;12.70;1.00
8152;DHT22;4117;53.622;9.958;2023-04-24T08:15:44;12.70;1.00
8152;DHT22;4117;53.622;9.958;2023-04-24T08:18:11;12.70;1.00
8152;DHT22;4117;53.622;9.958;2023-04-24T08:20:39;12.70;1.00
8152;DHT22;4117;53.622;9.958;2023-04-24T08:23:06;12.80;1.00
8152;DHT22;4117;53.622;9.958;2023-04-24T08:25:32;12.70;1.00
8152;DHT22;4117;53.622;9.958;2023-04-24T08:28:01;12.70;1.00
8152;DHT22;4117;53.622;9.958;2023-04-24T08:30:28;12.70;1.00
8152;DHT22;4117;53.622;9.958;2023-04-24T08:32:57;12.60;1.00
8152;DHT22;4117;53.622;9.958;2023-04-24T08:35:24;12.60;1.00
8152;DHT22;4117;53.622;9.958;2023-04-24T08:37:52;12.60;1.00
8152;DHT22;4117;53.622;9.958;2023-04-24T08:40:22;12.50;1.00
8152;DHT22;4117;53.622;9.958;2023-04-24T08:42:54;12.40;1.00
8152;DHT22;4117;53.622;9.958;2023-04-24T08:45:22;12.40;1.00
8152;DHT22;4117;53.622;9.958;2023-04-24T08:47:50;12.50;1.00
8152;DHT22;4117;53.622;9.958;2023-04-24T08:50:20;12.40;1.00
8152;DHT22;4117;53.622;9.958;2023-04-24T08:52:48;12.40;1.00
8152;DHT22;4117;53.622;9.958;2023-04-24T08:55:16;12.30;1.00
8152;DHT22;4117;53.622;9.958;2023-04-24T08:57:44;12.30;1.00
8152;DHT22;4117;53.622;9.958;2023-04-24T09:00:12;12.30;1.00
8152;DHT22;4117;53.622;9.958;2023-04-24T09:02:42;12.30;1.00
8152;DHT22;4117;53.622;9.958;2023-04-24T09:05:10;12.30;1.00
8152;DHT22;4117;53.622;9.958;2023-04-24T09:07:39;12.40;1.00
8152;DHT22;4117;53.622;9.958;2023-04-24T09:10:08;12.40;1.00
8152;DHT22;4117;53.622;9.958;2023-04-24T09:12:35;12.30;1.00
8152;DHT22;4117;53.622;9.958;2023-04-24T09:15:03;12.40;1.00
8152;DHT22;4117;53.622;9.958;2023-04-24T09:17:31;12.40;1.00
8152;DHT22;4117;53.622;9.958;2023-04-24T09:20:01;12.40;1.00
8152;DHT22;4117;53.622;9.958;2023-04-24T09:22:30;12.40;1.00
8152;DHT22;4117;53.622;9.958;2023-04-24T09:25:02;12.60;1.00
8152;DHT22;4117;53.622;9.958;2023-04-24T09:27:31;12.60;1.00
8152;DHT22;4117;53.622;9.958;2023-04-24T09:29:59;12.60;1.00
8152;DHT22;4117;53.622;9.958;2023-04-24T09:32:26;12.60;1.00
8152;DHT22;4117;53.622;9.958;2023-04-24T09:35:09;12.50;1.00
8152;DHT22;4117;53.622;9.958;2023-04-24T09:37:41;12.60;1.00
8152;DHT22;4117;53.622;9.958;2023-04-24T09:40:14;12.60;1.00
8152;DHT22;4117;53.622;9.958;2023-04-24T09:42:44;12.70;1.00
8152;DHT22;4117;53.622;9.958;2023-04-24T09:45:12;12.80;1.00
8152;DHT22;4117;53.622;9.958;2023-04-24T09:47:39;12.80;1.00
8152;DHT22;4117;53.622;9.958;2023-04-24T09:50:10;12.80;1.00
8152;DHT22;4117;53.622;9.958;2023-04-24T09:52:40;12.70;1.00
8152;DHT22;4117;53.622;9.958;2023-04-24T09:55:13;12.60;1.00
8152;DHT22;4117;53.622;9.958;2023-04-24T09:57:52;12.40;1.00
8152;DHT22;4117;53.622;9.958;2023-04-24T10:00:23;12.50;1.00
8152;DHT22;4117;53.622;9.958;2023-04-24T10:02:54;12.60;1.00
8152;DHT22;4117;53.622;9.958;2023-04-24T10:05:27;12.60;1.00
8152;DHT22;4117;53.622;9.958;2023-04-24T10:08:00;12.60;1.00
8152;DHT22;4117;53.622;9.958;2023-04-24T10:10:30;12.60;1.00
8152;DHT22;4117;53.622;9.958;2023-04-24T10:12:57;12.50;1.00
8152;DHT22;4117;53.622;9.958;2023-04-24T10:15:24;12.30;1.00
8152;DHT22;4117;53.622;9.958;2023-04-24T10:17:53;12.30;1.00
8152;DHT22;4117;53.622;9.958;2023-04-24T10:20:21;12.30;1.00
8152;DHT22;4117;53.622;9.958;2023-04-24T10:22:50;12.30;1.00
8152;DHT22;4117;53.622;9.958;2023-04-24T10:25:19;12.30;1.00
8152;DHT22;4117;53.622;9.958;2023-04-24T10:27:50;12.40;1.00
8152;DHT22;4117;53.622;9.958;2023-04-24T10:30:17;12.30;1.00
8152;DHT22;4117;53.622;9.958;2023-04-24T10:32:45;12.30;1.00
8152;DHT22;4117;53.622;9.958;2023-04-24T10:35:13;12.40;1.00
8152;DHT22;4117;53.622;9.958;2023-04-24T10:37:44;12.40;1.00
8152;DHT22;4117;53.622;9.958;2023-04-24T10:40:16;12.50;1.00
8152;DHT22;4117;53.622;9.958;2023-04-24T10:42:48;12.50;1.00
8152;DHT22;4117;53.622;9.958;2023-04-24T10:45:19;12.60;1.00
8152;DHT22;4117;53.622;9.958;2023-04-24T10:47:53;12.60;1.00
8152;DHT22;4117;53.622;9.958;2023-04-24T10:50:23;12.60;1.00
8152;DHT22;4117;53.622;9.958;2023-04-24T10:52:50;12.60;1.00
8152;DHT22;4117;53.622;9.958;2023-04-24T10:55:40;12.50;1.00
8152;DHT22;4117;53.622;9.958;2023-04-24T10:58:09;12.50;1.00
8152;DHT22;4117;53.622;9.958;2023-04-24T11:00:37;12.50;1.00
8152;DHT22;4117;53.622;9.958;2023-04-24T11:03:05;12.50;1.00
8152;DHT22;4117;53.622;9.958;2023-04-24T11:05:52;12.50;1.00
8152;DHT22;4117;53.622;9.958;2023-04-24T11:08:26;12.50;1.00
8152;DHT22;4117;53.622;9.958;2023-04-24T11:11:01;12.50;1.00
8152;DHT22;4117;53.622;9.958;2023-04-24T11:16:32;12.50;1.00
8152;DHT22;4117;53.622;9.958;2023-04-24T11:19:04;12.60;1.00
8152;DHT22;4117;53.622;9.958;2023-04-24T11:21:32;12.70;1.00
8152;DHT22;4117;53.622;9.958;2023-04-24T11:24:26;12.80;1.00
8152;DHT22;4117;53.622;9.958;2023-04-24T11:26:54;12.80;1.00
8152;DHT22;4117;53.622;9.958;2023-04-24T11:29:22;12.70;1.00
8152;DHT22;4117;53.622;9.958;2023-04-24T11:31:50;12.60;1.00
8152;DHT22;4117;53.622;9.958;2023-04-24T11:34:18;12.70;1.00
8152;DHT22;4117;53.622;9.958;2023-04-24T11:36:45;12.80;1.00
8152;DHT22;4117;53.622;9.958;2023-04-24T11:39:13;12.80;1.00
8152;DHT22;4117;53.622;9.958;2023-04-24T11:41:39;12.80;1.00
8152;DHT22;4117;53.622;9.958;2023-04-24T11:44:07;12.80;1.00
8152;DHT22;4117;53.622;9.958;2023-04-24T11:46:35;12.80;1.00
8152;DHT22;4117;53.622;9.958;2023-04-24T11:49:04;12.70;1.00
8152;DHT22;4117;53.622;9.958;2023-04-24T11:51:32;12.80;1.00
8152;DHT22;4117;53.622;9.958;2023-04-24T11:53:59;12.80;1.00
8152;DHT22;4117;53.622;9.958;2023-04-24T11:56:26;12.80;1.00
8152;DHT22;4117;53.622;9.958;2023-04-24T11:58:53;12.90;1.00
8152;DHT22;4117;53.622;9.958;2023-04-24T12:01:20;12.90;1.00
8152;DHT22;4117;53.622;9.958;2023-04-24T12:03:49;12.90;1.00
8152;DHT22;4117;53.622;9.958;2023-04-24T12:06:17;12.80;1.00
8152;DHT22;4117;53.622;9.958;2023-04-24T12:08:48;12.80;1.00
8152;DHT22;4117;53.622;9.958;2023-04-24T12:11:16;12.80;1.00
8152;DHT22;4117;53.622;9.958;2023-04-24T12:13:46;12.90;1.00
8152;DHT22;4117;53.622;9.958;2023-04-24T12:16:13;12.90;1.00
8152;DHT22;4117;53.622;9.958;2023-04-24T12:18:44;13.00;1.00
8152;DHT22;4117;53.622;9.958;2023-04-24T12:21:20;13.00;1.00
8152;DHT22;4117;53.622;9.958;2023-04-24T12:23:47;13.10;1.00
8152;DHT22;4117;53.622;9.958;2023-04-24T12:26:17;13.00;1.00
8152;DHT22;4117;53.622;9.958;2023-04-24T12:28:47;13.00;1.00
8152;DHT22;4117;53.622;9.958;2023-04-24T12:31:14;13.00;1.00
8152;DHT22;4117;53.622;9.958;2023-04-24T12:33:41;12.80;1.00
8152;DHT22;4117;53.622;9.958;2023-04-24T12:36:10;12.80;1.00
8152;DHT22;4117;53.622;9.958;2023-04-24T12:38:39;12.80;1.00
8152;DHT22;4117;53.622;9.958;2023-04-24T12:41:11;12.60;1.00
8152;DHT22;4117;53.622;9.958;2023-04-24T12:43:38;12.60;1.00
8152;DHT22;4117;53.622;9.958;2023-04-24T12:46:16;12.60;1.00
8152;DHT22;4117;53.622;9.958;2023-04-24T12:48:43;12.50;1.00
8152;DHT22;4117;53.622;9.958;2023-04-24T12:51:10;12.40;1.00
8152;DHT22;4117;53.622;9.958;2023-04-24T12:53:40;12.40;1.00
8152;DHT22;4117;53.622;9.958;2023-04-24T12:56:06;12.40;1.00
8152;DHT22;4117;53.622;9.958;2023-04-24T12:58:33;12.40;1.00
8152;DHT22;4117;53.622;9.958;2023-04-24T13:01:00;12.40;1.00
8152;DHT22;4117;53.622;9.958;2023-04-24T13:03:27;12.30;1.00
8152;DHT22;4117;53.622;9.958;2023-04-24T13:05:54;12.10;1.00
8152;DHT22;4117;53.622;9.958;2023-04-24T13:08:21;12.20;1.00
8152;DHT22;4117;53.622;9.958;2023-04-24T13:10:50;12.20;1.00
8152;DHT22;4117;53.622;9.958;2023-04-24T13:13:17;12.10;1.00
8152;DHT22;4117;53.622;9.958;2023-04-24T13:15:44;12.10;1.00
8152;DHT22;4117;53.622;9.958;2023-04-24T13:18:11;12.10;1.00
8152;DHT22;4117;53.622;9.958;2023-04-24T13:20:38;12.10;1.00
8152;DHT22;4117;53.622;9.958;2023-04-24T13:23:06;12.10;1.00
8152;DHT22;4117;53.622;9.958;2023-04-24T13:25:35;12.20;1.00
8152;DHT22;4117;53.622;9.958;2023-04-24T13:28:04;12.10;1.00
8152;DHT22;4117;53.622;9.958;2023-04-24T13:30:31;12.10;1.00
8152;DHT22;4117;53.622;9.958;2023-04-24T13:32:58;12.10;1.00
8152;DHT22;4117;53.622;9.958;2023-04-24T13:35:25;12.20;1.00
8152;DHT22;4117;53.622;9.958;2023-04-24T13:37:51;12.10;1.00
8152;DHT22;4117;53.622;9.958;2023-04-24T13:40:18;12.10;1.00
8152;DHT22;4117;53.622;9.958;2023-04-24T13:42:45;12.20;1.00
8152;DHT22;4117;53.622;9.958;2023-04-24T13:45:14;12.10;1.00
8152;DHT22;4117;53.622;9.958;2023-04-24T13:47:41;12.00;1.00
8152;DHT22;4117;53.622;9.958;2023-04-24T13:50:08;12.00;1.00
8152;DHT22;4117;53.622;9.958;2023-04-24T13:52:35;12.00;1.00
8152;DHT22;4117;53.622;9.958;2023-04-24T13:55:02;11.90;1.00
8152;DHT22;4117;53.622;9.958;2023-04-24T13:57:29;11.90;1.00
8152;DHT22;4117;53.622;9.958;2023-04-24T13:59:57;11.90;1.00
8152;DHT22;4117;53.622;9.958;2023-04-24T14:02:28;11.90;1.00
8152;DHT22;4117;53.622;9.958;2023-04-24T14:04:55;12.00;1.00
8152;DHT22;4117;53.622;9.958;2023-04-24T14:07:21;12.10;1.00
8152;DHT22;4117;53.622;9.958;2023-04-24T14:09:48;12.00;1.00
8152;DHT22;4117;53.622;9.958;2023-04-24T14:12:16;12.10;1.00
8152;DHT22;4117;53.622;9.958;2023-04-24T14:14:45;12.10;1.00
8152;DHT22;4117;53.622;9.958;2023-04-24T14:17:12;12.00;1.00
8152;DHT22;4117;53.622;9.958;2023-04-24T14:19:40;12.10;1.00
8152;DHT22;4117;53.622;9.958;2023-04-24T14:22:09;12.10;1.00
8152;DHT22;4117;53.622;9.958;2023-04-24T14:24:36;12.00;1.00
8152;DHT22;4117;53.622;9.958;2023-04-24T14:27:03;12.00;1.00
8152;DHT22;4117;53.622;9.958;2023-04-24T14:29:30;11.80;1.00
8152;DHT22;4117;53.622;9.958;2023-04-24T14:31:57;11.80;1.00
8152;DHT22;4117;53.622;9.958;2023-04-24T14:34:24;11.80;1.00
8152;DHT22;4117;53.622;9.958;2023-04-24T14:36:52;11.60;1.00
8152;DHT22;4117;53.622;9.958;2023-04-24T14:39:20;11.50;1.00
8152;DHT22;4117;53.622;9.958;2023-04-24T14:41:47;11.40;1.00
8152;DHT22;4117;53.622;9.958;2023-04-24T14:44:13;11.30;1.00
8152;DHT22;4117;53.622;9.958;2023-04-24T14:46:41;11.20;1.00
8152;DHT22;4117;53.622;9.958;2023-04-24T14:49:08;11.10;1.00
8152;DHT22;4117;53.622;9.958;2023-04-24T14:51:37;11.10;1.00
8152;DHT22;4117;53.622;9.958;2023-04-24T14:54:05;11.20;1.00
8152;DHT22;4117;53.622;9.958;2023-04-24T14:56:32;11.10;1.00
8152;DHT22;4117;53.622;9.958;2023-04-24T14:58:59;11.10;1.00
8152;DHT22;4117;53.622;9.958;2023-04-24T15:01:26;11.00;1.00
8152;DHT22;4117;53.622;9.958;2023-04-24T15:03:53;10.90;1.00
8152;DHT22;4117;53.622;9.958;2023-04-24T15:06:20;10.90;1.00
8152;DHT22;4117;53.622;9.958;2023-04-24T15:08:47;10.80;1.00
8152;DHT22;4117;53.622;9.958;2023-04-24T15:11:16;10.80;1.00
8152;DHT22;4117;53.622;9.958;2023-04-24T15:13:43;10.80;1.00
8152;DHT22;4117;53.622;9.958;2023-04-24T15:16:10;10.70;1.00
8152;DHT22;4117;53.622;9.958;2023-04-24T15:18:37;10.70;1.00
8152;DHT22;4117;53.622;9.958;2023-04-24T15:21:04;10.70;1.00
8152;DHT22;4117;53.622;9.958;2023-04-24T15:23:31;10.40;1.00
8152;DHT22;4117;53.622;9.958;2023-04-24T15:25:58;10.40;1.00
8152;DHT22;4117;53.622;9.958;2023-04-24T15:28:26;10.30;1.00
8152;DHT22;4117;53.622;9.958;2023-04-24T15:30:53;10.20;1.00
8152;DHT22;4117;53.622;9.958;2023-04-24T15:33:20;10.20;1.00
8152;DHT22;4117;53.622;9.958;2023-04-24T15:35:47;10.00;1.00
8152;DHT22;4117;53.622;9.958;2023-04-24T15:38:15;10.00;1.00
8152;DHT22;4117;53.622;9.958;2023-04-24T15:40:42;9.90;1.00
8152;DHT22;4117;53.622;9.958;2023-04-24T15:43:10;9.80;1.00
8152;DHT22;4117;53.622;9.958;2023-04-24T15:45:39;9.70;1.00
8152;DHT22;4117;53.622;9.958;2023-04-24T15:48:05;9.70;1.00
8152;DHT22;4117;53.622;9.958;2023-04-24T15:50:32;9.70;1.00
8152;DHT22;4117;53.622;9.958;2023-04-24T15:52:59;9.60;1.00
8152;DHT22;4117;53.622;9.958;2023-04-24T15:55:27;9.60;1.00
8152;DHT22;4117;53.622;9.958;2023-04-24T15:57:54;9.60;1.00
8152;DHT22;4117;53.622;9.958;2023-04-24T16:00:21;9.50;1.00
8152;DHT22;4117;53.622;9.958;2023-04-24T16:02:49;9.40;1.00
8152;DHT22;4117;53.622;9.958;2023-04-24T16:05:16;9.20;1.00
8152;DHT22;4117;53.622;9.958;2023-04-24T16:07:44;9.20;1.00
8152;DHT22;4117;53.622;9.958;2023-04-24T16:10:11;9.30;1.00
8152;DHT22;4117;53.622;9.958;2023-04-24T16:12:38;9.20;1.00
8152;DHT22;4117;53.622;9.958;2023-04-24T16:15:06;9.10;1.00
8152;DHT22;4117;53.622;9.958;2023-04-24T16:17:33;9.10;1.00
8152;DHT22;4117;53.622;9.958;2023-04-24T16:20:02;9.00;1.00
8152;DHT22;4117;53.622;9.958;2023-04-24T16:22:30;8.80;1.00
8152;DHT22;4117;53.622;9.958;2023-04-24T16:24:56;8.80;1.00
8152;DHT22;4117;53.622;9.958;2023-04-24T16:27:24;8.80;1.00